createdAt,value
2023-04-16T00:02:33.936Z,0
2023-04-16T00:07:51.594Z,0
2023-04-16T00:18:32.430Z,0
2023-04-16T00:23:49.821Z,0
2023-04-16T00:29:07.245Z,0
2023-04-16T00:34:25.037Z,0
2023-04-16T00:39:42.354Z,0
2023-04-16T00:50:19.944Z,0
2023-04-16T00:55:37.212Z,0
2023-04-16T01:00:54.609Z,0
2023-04-16T01:06:11.747Z,0
2023-04-16T01:11:37.543Z,0
2023-04-16T01:16:55.162Z,0
2023-04-16T01:22:12.722Z,0
2023-04-16T01:27:30.041Z,0
2023-04-16T01:32:47.236Z,0
2023-04-16T01:38:04.548Z,0
2023-04-16T01:43:22.076Z,0
2023-04-16T01:48:39.365Z,0
2023-04-16T01:53:56.733Z,0
2023-04-16T01:59:14.139Z,0
2023-04-16T02:04:31.385Z,0
2023-04-16T02:10:05.592Z,0
2023-04-16T02:15:23.123Z,0
2023-04-16T02:20:40.537Z,0
2023-04-16T02:25:57.876Z,0
2023-04-16T02:31:15.292Z,0
2023-04-16T02:36:32.636Z,0
2023-04-16T02:41:49.916Z,0
2023-04-16T02:47:07.237Z,0
2023-04-16T02:52:24.413Z,0
2023-04-16T02:57:41.643Z,0
2023-04-16T03:02:59.171Z,0
2023-04-16T03:08:19.764Z,0
2023-04-16T03:13:37.156Z,0
2023-04-16T03:18:54.386Z,0
2023-04-16T03:24:11.647Z,0
2023-04-16T03:29:28.993Z,0
2023-04-16T03:34:46.111Z,0
2023-04-16T03:40:06.438Z,0
2023-04-16T03:45:23.730Z,0
2023-04-16T03:50:44.135Z,0
2023-04-16T03:56:39.017Z,0
2023-04-16T04:01:56.820Z,0
2023-04-16T04:07:14.173Z,0
2023-04-16T04:12:38.573Z,0
2023-04-16T04:17:56.234Z,0
2023-04-16T04:23:13.518Z,0
2023-04-16T04:28:30.887Z,0
2023-04-16T04:34:05.440Z,17.5
2023-04-16T04:39:22.712Z,30.4
2023-04-16T04:44:39.584Z,48.7
2023-04-16T04:49:56.619Z,84.6
2023-04-16T04:55:13.817Z,129.2
2023-04-16T05:00:30.606Z,167.5
2023-04-16T05:05:47.767Z,218.8
2023-04-16T05:11:04.897Z,250.4
2023-04-16T05:16:21.941Z,263.3
2023-04-16T05:21:49.614Z,294.6
2023-04-16T05:27:06.770Z,408.3
2023-04-16T05:32:23.558Z,547.1
2023-04-16T05:37:40.643Z,669.6
2023-04-16T05:42:57.538Z,705.4
2023-04-16T05:48:14.361Z,784.6
2023-04-16T05:53:31.589Z,956.7
2023-04-16T05:58:48.775Z,1019.6
2023-04-16T06:04:06.635Z,1084.2
2023-04-16T06:09:27.897Z,1290.4
2023-04-16T06:14:44.954Z,1343.7
2023-04-16T06:20:01.885Z,1977.5
2023-04-16T06:25:19.090Z,2041.7
2023-04-16T06:30:44.489Z,1723.7
2023-04-16T06:36:01.647Z,1840.8
2023-04-16T06:41:18.761Z,2148.8
2023-04-16T06:46:35.790Z,2212.1
2023-04-16T06:51:52.923Z,2129.2
2023-04-16T06:57:09.974Z,2283.8
2023-04-16T07:02:27.139Z,2240.4
2023-04-16T07:13:06.899Z,2518.3
2023-04-16T07:18:24.046Z,2729.2
2023-04-16T07:23:40.972Z,2657.9
2023-04-16T07:28:58.074Z,2817.9
2023-04-16T07:34:15.205Z,2978.3
2023-04-16T07:39:32.181Z,3042.5
2023-04-16T07:44:49.343Z,3187.1
2023-04-16T07:50:06.526Z,3332.1
2023-04-16T07:55:23.612Z,3114.6
2023-04-16T08:00:45.218Z,2897.5
2023-04-16T08:06:02.109Z,2735.8
2023-04-16T08:11:18.997Z,2789.2
2023-04-16T08:16:36.003Z,3141.3
2023-04-16T08:21:53.312Z,3132.5
2023-04-16T08:27:18.277Z,3596.3
2023-04-16T08:32:36.690Z,3487.9
2023-04-16T08:37:53.818Z,3466.7
2023-04-16T08:43:10.873Z,3802.1
2023-04-16T08:48:27.908Z,4065
2023-04-16T08:53:45.092Z,3915
2023-04-16T08:59:02.117Z,3960.4
2023-04-16T09:04:19.578Z,7372.1
2023-04-16T09:09:46.059Z,6289.6
2023-04-16T09:15:03.228Z,4512.1
2023-04-16T09:20:20.196Z,3899.6
2023-04-16T09:25:40.702Z,6153.8
2023-04-16T09:30:57.691Z,6955
2023-04-16T09:36:15.083Z,5521.7
2023-04-16T09:41:32.028Z,5567.9
2023-04-16T09:46:48.983Z,5888.3
2023-04-16T09:52:06.105Z,7561.3
2023-04-16T09:57:23.570Z,9106.7
2023-04-16T10:02:40.700Z,8322.9
2023-04-16T10:07:58.207Z,3712.9
2023-04-16T10:13:14.734Z,2767.5
2023-04-16T10:18:31.456Z,4669.6
2023-04-16T10:23:48.603Z,8401.2
2023-04-16T10:29:23.490Z,9458.8
2023-04-16T10:34:41.482Z,16355
2023-04-16T10:40:44.197Z,18267.9
2023-04-16T10:46:02.097Z,9870.8
2023-04-16T10:51:19.015Z,9013.3
2023-04-16T11:01:56.684Z,7750.8
2023-04-16T11:07:21.208Z,6856.7
2023-04-16T11:12:38.526Z,3938.3
2023-04-16T11:17:55.222Z,5372.9
2023-04-16T11:23:12.086Z,6842.1
2023-04-16T11:28:29.699Z,18669.6
2023-04-16T11:33:47.986Z,19480.4
2023-04-16T12:22:46.505Z,15761.7
2023-04-16T12:28:03.255Z,13901.2
2023-04-16T12:33:20.308Z,12055.8
2023-04-16T12:38:37.123Z,8766.2
2023-04-16T12:49:15.660Z,6107.9
2023-04-16T12:54:32.506Z,4098.3
2023-04-16T12:59:49.296Z,3329.6
2023-04-16T13:05:06.135Z,7232.1
2023-04-16T13:10:23.457Z,11222.1
2023-04-16T13:15:41.034Z,14476.3
2023-04-16T13:26:19.108Z,12622.1
2023-04-16T13:31:35.997Z,11741.2
2023-04-16T13:36:53.079Z,11905.8
2023-04-16T13:42:09.922Z,14009.6
2023-04-16T13:47:27.622Z,14958.7
2023-04-16T13:52:44.690Z,7032.9
2023-04-16T13:58:10.672Z,10844.2
2023-04-16T14:03:28.292Z,19003.3
2023-04-16T14:08:47.421Z,19700
2023-04-16T14:14:03.227Z,8607.1
2023-04-16T14:19:19.274Z,11867.5
2023-04-16T14:24:35.960Z,12575.8
2023-04-16T14:29:53.292Z,11132.5
2023-04-16T14:35:09.704Z,3779.6
2023-04-16T14:40:26.053Z,6966.3
2023-04-16T14:45:43.588Z,12224.2
2023-04-16T14:51:01.140Z,11649.6
2023-04-16T14:56:18.325Z,9787.1
2023-04-16T15:01:35.601Z,15417.1
2023-04-16T15:12:20.075Z,16425.8
2023-04-16T15:17:37.352Z,9692.9
2023-04-16T15:22:53.728Z,4975.8
2023-04-16T15:28:10.283Z,4294.6
2023-04-16T16:17:06.924Z,2202.9
2023-04-16T16:22:23.347Z,854.6
2023-04-16T16:27:50.399Z,1550
2023-04-16T16:33:07.724Z,1816.7
2023-04-16T16:38:24.748Z,1587.1
2023-04-16T16:43:41.584Z,973.3
2023-04-16T16:50:01.397Z,1832.1
2023-04-16T16:55:20.229Z,2184.2
2023-04-16T17:00:37.242Z,2241.3
2023-04-16T17:05:54.496Z,992.5
2023-04-16T17:11:12.184Z,1030
2023-04-16T17:16:29.050Z,961.2
2023-04-16T17:21:46.129Z,737.5
2023-04-16T17:27:23.566Z,679.6
2023-04-16T17:32:41.008Z,632.5
2023-04-16T17:37:57.983Z,543.3
2023-04-16T17:48:38.872Z,462.5
2023-04-16T17:53:55.956Z,343.8
2023-04-16T17:59:12.989Z,260
2023-04-16T18:04:37.820Z,171.7
2023-04-16T18:09:55.393Z,262.9
2023-04-16T18:15:12.444Z,145.4
2023-04-16T18:20:29.192Z,103.8
2023-04-16T18:25:49.687Z,77.1
2023-04-16T18:31:07.020Z,50
2023-04-16T18:36:24.048Z,30.4
2023-04-16T18:41:41.476Z,0.5
2023-04-16T18:46:58.782Z,0
2023-04-16T18:52:16.163Z,0
2023-04-16T18:57:33.413Z,0
2023-04-16T19:02:51.153Z,0
2023-04-16T19:13:28.817Z,0
2023-04-16T19:18:46.115Z,0
2023-04-16T19:24:03.653Z,0
2023-04-16T19:30:37.952Z,0
2023-04-16T19:35:55.907Z,0
2023-04-16T19:41:13.430Z,0
2023-04-16T19:46:30.819Z,0
2023-04-16T19:51:48.051Z,0
2023-04-16T19:57:08.590Z,0
2023-04-16T20:02:25.960Z,0
2023-04-16T20:07:43.252Z,0
2023-04-16T20:13:00.549Z,0
2023-04-16T20:18:18.062Z,0
2023-04-16T20:23:35.658Z,0
2023-04-16T20:28:53.045Z,0
2023-04-16T20:34:10.432Z,0
2023-04-16T20:39:29.860Z,0
2023-04-16T20:44:47.481Z,0
2023-04-16T20:50:04.914Z,0
2023-04-16T20:55:22.037Z,0
2023-04-16T21:00:39.532Z,0
2023-04-16T21:06:04.092Z,0
2023-04-16T21:11:21.772Z,0
2023-04-16T21:16:47.836Z,0
2023-04-16T21:22:11.045Z,0
2023-04-16T21:27:28.262Z,0
2023-04-16T21:32:45.810Z,0
2023-04-16T21:38:06.127Z,0
2023-04-16T21:43:23.717Z,0
2023-04-16T21:48:40.917Z,0
2023-04-16T21:53:58.208Z,0
2023-04-16T21:59:15.524Z,0
2023-04-16T22:04:32.863Z,0
2023-04-16T22:09:50.171Z,0
2023-04-16T22:15:10.176Z,0
2023-04-16T22:20:27.621Z,0
2023-04-16T22:25:44.990Z,0
2023-04-16T22:31:02.319Z,0
2023-04-16T22:36:19.630Z,0
2023-04-16T22:41:37.266Z,0
2023-04-16T22:46:57.928Z,0
2023-04-16T22:52:15.269Z,0
2023-04-16T22:57:32.793Z,0
2023-04-16T23:08:10.516Z,0
2023-04-16T23:13:28.001Z,0
2023-04-16T23:18:45.371Z,0
2023-04-16T23:24:03.096Z,0
2023-04-16T23:29:20.181Z,0
2023-04-16T23:34:40.093Z,0
2023-04-16T23:39:57.279Z,0
2023-04-16T23:45:21.828Z,0
2023-04-16T23:50:39.194Z,0
2023-04-16T23:55:56.778Z,0
